sensor_id;sensor_type;location;lat;lon;timestamp;P1;durP1;ratioP1;P2;durP2;ratioP2
52686;SDS011;38584;49.426;8.396;2022-09-03T00:00:46;6.88;;;1.50;;
52686;SDS011;38584;49.426;8.396;2022-09-03T00:03:19;4.30;;;1.45;;
52686;SDS011;38584;49.426;8.396;2022-09-03T00:08:49;10.85;;;2.20;;
52686;SDS011;38584;49.426;8.396;2022-09-03T00:11:18;5.28;;;1.50;;
52686;SDS011;38584;49.426;8.396;2022-09-03T00:13:49;6.35;;;1.60;;
52686;SDS011;38584;49.426;8.396;2022-09-03T00:16:15;4.13;;;1.40;;
52686;SDS011;38584;49.426;8.396;2022-09-03T00:18:43;6.97;;;1.25;;
52686;SDS011;38584;49.426;8.396;2022-09-03T00:21:11;3.33;;;1.50;;
52686;SDS011;38584;49.426;8.396;2022-09-03T00:23:40;6.47;;;1.55;;
52686;SDS011;38584;49.426;8.396;2022-09-03T00:28:40;6.55;;;1.77;;
52686;SDS011;38584;49.426;8.396;2022-09-03T00:31:09;6.88;;;1.40;;
52686;SDS011;38584;49.426;8.396;2022-09-03T00:33:36;3.97;;;1.33;;
52686;SDS011;38584;49.426;8.396;2022-09-03T00:38:46;4.70;;;1.30;;
52686;SDS011;38584;49.426;8.396;2022-09-03T00:46:51;6.40;;;1.33;;
52686;SDS011;38584;49.426;8.396;2022-09-03T00:51:34;3.72;;;1.52;;
52686;SDS011;38584;49.426;8.396;2022-09-03T00:56:51;3.67;;;1.40;;
52686;SDS011;38584;49.426;8.396;2022-09-03T01:06:56;6.85;;;1.33;;
52686;SDS011;38584;49.426;8.396;2022-09-03T01:12:12;3.47;;;1.58;;
52686;SDS011;38584;49.426;8.396;2022-09-03T01:30:08;9.00;;;2.00;;
52686;SDS011;38584;49.426;8.396;2022-09-03T01:35:26;8.63;;;2.30;;
52686;SDS011;38584;49.426;8.396;2022-09-03T01:40:36;6.82;;;2.08;;
52686;SDS011;38584;49.426;8.396;2022-09-03T01:49:04;12.05;;;2.00;;
52686;SDS011;38584;49.426;8.396;2022-09-03T01:51:27;13.57;;;2.42;;
52686;SDS011;38584;49.426;8.396;2022-09-03T02:01:26;3.00;;;1.40;;
52686;SDS011;38584;49.426;8.396;2022-09-03T02:03:53;5.32;;;1.45;;
52686;SDS011;38584;49.426;8.396;2022-09-03T02:06:23;6.20;;;1.50;;
52686;SDS011;38584;49.426;8.396;2022-09-03T02:08:49;3.47;;;1.35;;
52686;SDS011;38584;49.426;8.396;2022-09-03T02:11:14;4.23;;;1.60;;
52686;SDS011;38584;49.426;8.396;2022-09-03T02:13:40;3.80;;;1.58;;
52686;SDS011;38584;49.426;8.396;2022-09-03T02:16:10;3.22;;;1.52;;
52686;SDS011;38584;49.426;8.396;2022-09-03T02:18:40;6.65;;;1.73;;
52686;SDS011;38584;49.426;8.396;2022-09-03T02:21:06;5.63;;;1.40;;
52686;SDS011;38584;49.426;8.396;2022-09-03T02:23:31;8.13;;;1.73;;
52686;SDS011;38584;49.426;8.396;2022-09-03T02:25:57;5.22;;;1.50;;
52686;SDS011;38584;49.426;8.396;2022-09-03T02:28:24;4.10;;;1.63;;
52686;SDS011;38584;49.426;8.396;2022-09-03T02:30:50;4.88;;;1.50;;
52686;SDS011;38584;49.426;8.396;2022-09-03T02:33:15;4.43;;;1.50;;
52686;SDS011;38584;49.426;8.396;2022-09-03T02:35:41;3.50;;;1.58;;
52686;SDS011;38584;49.426;8.396;2022-09-03T02:38:14;10.77;;;1.60;;
52686;SDS011;38584;49.426;8.396;2022-09-03T02:43:07;5.53;;;1.60;;
52686;SDS011;38584;49.426;8.396;2022-09-03T02:45:33;3.25;;;1.50;;
52686;SDS011;38584;49.426;8.396;2022-09-03T02:48:00;5.03;;;1.70;;
52686;SDS011;38584;49.426;8.396;2022-09-03T02:50:25;5.18;;;1.60;;
52686;SDS011;38584;49.426;8.396;2022-09-03T02:52:51;5.60;;;1.50;;
52686;SDS011;38584;49.426;8.396;2022-09-03T02:55:16;3.55;;;1.40;;
52686;SDS011;38584;49.426;8.396;2022-09-03T02:57:42;3.45;;;1.60;;
52686;SDS011;38584;49.426;8.396;2022-09-03T03:00:07;6.07;;;1.40;;
52686;SDS011;38584;49.426;8.396;2022-09-03T03:02:33;4.15;;;1.63;;
52686;SDS011;38584;49.426;8.396;2022-09-03T03:04:58;2.87;;;1.50;;
52686;SDS011;38584;49.426;8.396;2022-09-03T03:07:23;7.32;;;1.70;;
52686;SDS011;38584;49.426;8.396;2022-09-03T03:09:50;5.32;;;1.55;;
52686;SDS011;38584;49.426;8.396;2022-09-03T03:12:15;4.47;;;1.40;;
52686;SDS011;38584;49.426;8.396;2022-09-03T03:14:41;6.28;;;1.65;;
52686;SDS011;38584;49.426;8.396;2022-09-03T03:17:06;6.07;;;1.75;;
52686;SDS011;38584;49.426;8.396;2022-09-03T03:19:31;5.60;;;1.70;;
52686;SDS011;38584;49.426;8.396;2022-09-03T03:21:57;3.40;;;1.60;;
52686;SDS011;38584;49.426;8.396;2022-09-03T03:24:22;6.75;;;1.77;;
52686;SDS011;38584;49.426;8.396;2022-09-03T03:26:47;7.40;;;1.70;;
52686;SDS011;38584;49.426;8.396;2022-09-03T03:29:13;4.53;;;1.60;;
52686;SDS011;38584;49.426;8.396;2022-09-03T03:31:39;5.55;;;2.15;;
52686;SDS011;38584;49.426;8.396;2022-09-03T03:34:04;5.03;;;1.58;;
52686;SDS011;38584;49.426;8.396;2022-09-03T03:36:30;3.67;;;1.40;;
52686;SDS011;38584;49.426;8.396;2022-09-03T03:38:57;4.88;;;1.73;;
52686;SDS011;38584;49.426;8.396;2022-09-03T03:41:23;4.72;;;1.70;;
52686;SDS011;38584;49.426;8.396;2022-09-03T03:43:52;4.57;;;1.60;;
52686;SDS011;38584;49.426;8.396;2022-09-03T03:46:19;2.60;;;1.13;;
52686;SDS011;38584;49.426;8.396;2022-09-03T03:48:46;5.72;;;1.50;;
52686;SDS011;38584;49.426;8.396;2022-09-03T03:51:11;5.07;;;1.40;;
52686;SDS011;38584;49.426;8.396;2022-09-03T03:53:36;3.23;;;1.40;;
52686;SDS011;38584;49.426;8.396;2022-09-03T03:56:03;2.47;;;1.25;;
52686;SDS011;38584;49.426;8.396;2022-09-03T03:58:29;3.25;;;1.48;;
52686;SDS011;38584;49.426;8.396;2022-09-03T04:01:02;4.88;;;1.40;;
52686;SDS011;38584;49.426;8.396;2022-09-03T04:03:27;5.45;;;1.58;;
52686;SDS011;38584;49.426;8.396;2022-09-03T04:05:54;9.52;;;1.40;;
52686;SDS011;38584;49.426;8.396;2022-09-03T04:08:20;6.53;;;1.50;;
52686;SDS011;38584;49.426;8.396;2022-09-03T04:10:45;3.17;;;1.50;;
52686;SDS011;38584;49.426;8.396;2022-09-03T04:13:11;4.30;;;1.50;;
52686;SDS011;38584;49.426;8.396;2022-09-03T04:15:36;5.87;;;1.57;;
52686;SDS011;38584;49.426;8.396;2022-09-03T04:18:01;4.70;;;1.50;;
52686;SDS011;38584;49.426;8.396;2022-09-03T04:20:26;8.05;;;1.73;;
52686;SDS011;38584;49.426;8.396;2022-09-03T04:22:51;6.73;;;1.60;;
52686;SDS011;38584;49.426;8.396;2022-09-03T04:25:17;11.70;;;1.90;;
52686;SDS011;38584;49.426;8.396;2022-09-03T04:27:42;3.43;;;1.40;;
52686;SDS011;38584;49.426;8.396;2022-09-03T04:30:08;3.45;;;1.50;;
52686;SDS011;38584;49.426;8.396;2022-09-03T04:32:33;2.42;;;1.48;;
52686;SDS011;38584;49.426;8.396;2022-09-03T04:35:17;3.28;;;1.30;;
52686;SDS011;38584;49.426;8.396;2022-09-03T04:37:42;4.50;;;1.60;;
52686;SDS011;38584;49.426;8.396;2022-09-03T04:40:08;3.80;;;1.60;;
52686;SDS011;38584;49.426;8.396;2022-09-03T04:42:33;5.45;;;1.70;;
52686;SDS011;38584;49.426;8.396;2022-09-03T04:44:58;4.20;;;1.60;;
52686;SDS011;38584;49.426;8.396;2022-09-03T04:47:23;6.63;;;1.73;;
52686;SDS011;38584;49.426;8.396;2022-09-03T04:49:48;9.50;;;1.67;;
52686;SDS011;38584;49.426;8.396;2022-09-03T04:52:14;5.43;;;1.43;;
52686;SDS011;38584;49.426;8.396;2022-09-03T04:54:39;5.03;;;1.50;;
52686;SDS011;38584;49.426;8.396;2022-09-03T04:57:04;5.50;;;1.77;;
52686;SDS011;38584;49.426;8.396;2022-09-03T04:59:29;6.43;;;1.70;;
52686;SDS011;38584;49.426;8.396;2022-09-03T05:01:54;4.33;;;1.60;;
52686;SDS011;38584;49.426;8.396;2022-09-03T05:04:20;9.13;;;1.70;;
52686;SDS011;38584;49.426;8.396;2022-09-03T05:06:45;8.10;;;1.73;;
52686;SDS011;38584;49.426;8.396;2022-09-03T05:09:11;5.43;;;1.90;;
52686;SDS011;38584;49.426;8.396;2022-09-03T05:11:36;5.40;;;1.87;;
52686;SDS011;38584;49.426;8.396;2022-09-03T05:14:01;8.00;;;1.73;;
52686;SDS011;38584;49.426;8.396;2022-09-03T05:16:27;5.20;;;1.75;;
52686;SDS011;38584;49.426;8.396;2022-09-03T05:18:54;9.10;;;1.92;;
52686;SDS011;38584;49.426;8.396;2022-09-03T05:21:20;8.23;;;1.88;;
52686;SDS011;38584;49.426;8.396;2022-09-03T05:23:46;4.50;;;1.70;;
52686;SDS011;38584;49.426;8.396;2022-09-03T05:26:12;7.32;;;1.98;;
52686;SDS011;38584;49.426;8.396;2022-09-03T05:28:38;7.55;;;1.77;;
52686;SDS011;38584;49.426;8.396;2022-09-03T05:31:08;4.65;;;1.58;;
52686;SDS011;38584;49.426;8.396;2022-09-03T05:33:34;3.58;;;1.85;;
52686;SDS011;38584;49.426;8.396;2022-09-03T05:36:00;4.88;;;1.80;;
52686;SDS011;38584;49.426;8.396;2022-09-03T05:38:26;6.15;;;1.70;;
52686;SDS011;38584;49.426;8.396;2022-09-03T05:40:51;4.72;;;1.65;;
52686;SDS011;38584;49.426;8.396;2022-09-03T05:43:16;3.17;;;1.70;;
52686;SDS011;38584;49.426;8.396;2022-09-03T05:45:41;7.90;;;1.90;;
52686;SDS011;38584;49.426;8.396;2022-09-03T05:48:07;7.53;;;1.80;;
52686;SDS011;38584;49.426;8.396;2022-09-03T05:50:32;8.70;;;1.97;;
52686;SDS011;38584;49.426;8.396;2022-09-03T05:52:57;4.60;;;1.60;;
52686;SDS011;38584;49.426;8.396;2022-09-03T05:55:22;8.13;;;2.10;;
52686;SDS011;38584;49.426;8.396;2022-09-03T05:57:50;7.60;;;2.00;;
52686;SDS011;38584;49.426;8.396;2022-09-03T06:00:16;14.65;;;2.15;;
52686;SDS011;38584;49.426;8.396;2022-09-03T06:02:42;6.72;;;2.05;;
52686;SDS011;38584;49.426;8.396;2022-09-03T06:05:07;10.23;;;2.60;;
52686;SDS011;38584;49.426;8.396;2022-09-03T06:07:32;13.52;;;2.60;;
52686;SDS011;38584;49.426;8.396;2022-09-03T06:09:58;8.90;;;2.00;;
52686;SDS011;38584;49.426;8.396;2022-09-03T06:12:23;18.00;;;3.23;;
52686;SDS011;38584;49.426;8.396;2022-09-03T06:14:48;12.57;;;2.10;;
52686;SDS011;38584;49.426;8.396;2022-09-03T06:17:13;10.60;;;2.43;;
52686;SDS011;38584;49.426;8.396;2022-09-03T06:19:39;7.45;;;1.98;;
52686;SDS011;38584;49.426;8.396;2022-09-03T06:22:04;8.27;;;2.30;;
52686;SDS011;38584;49.426;8.396;2022-09-03T06:24:29;5.60;;;1.83;;
52686;SDS011;38584;49.426;8.396;2022-09-03T06:26:55;9.60;;;2.53;;
52686;SDS011;38584;49.426;8.396;2022-09-03T06:29:20;7.97;;;2.13;;
52686;SDS011;38584;49.426;8.396;2022-09-03T06:31:46;9.30;;;2.10;;
52686;SDS011;38584;49.426;8.396;2022-09-03T06:34:12;6.57;;;2.17;;
52686;SDS011;38584;49.426;8.396;2022-09-03T06:36:37;6.38;;;2.20;;
52686;SDS011;38584;49.426;8.396;2022-09-03T06:39:03;8.10;;;2.23;;
52686;SDS011;38584;49.426;8.396;2022-09-03T06:41:29;4.63;;;1.90;;
52686;SDS011;38584;49.426;8.396;2022-09-03T06:43:58;5.10;;;1.95;;
52686;SDS011;38584;49.426;8.396;2022-09-03T06:46:26;11.13;;;2.22;;
52686;SDS011;38584;49.426;8.396;2022-09-03T06:48:51;7.53;;;2.27;;
52686;SDS011;38584;49.426;8.396;2022-09-03T06:51:21;11.63;;;2.35;;
52686;SDS011;38584;49.426;8.396;2022-09-03T06:53:47;6.40;;;2.28;;
52686;SDS011;38584;49.426;8.396;2022-09-03T06:56:18;14.35;;;2.40;;
52686;SDS011;38584;49.426;8.396;2022-09-03T06:58:46;6.03;;;2.50;;
52686;SDS011;38584;49.426;8.396;2022-09-03T07:01:13;8.00;;;2.40;;
52686;SDS011;38584;49.426;8.396;2022-09-03T07:03:39;6.75;;;2.30;;
52686;SDS011;38584;49.426;8.396;2022-09-03T07:06:06;7.50;;;2.50;;
52686;SDS011;38584;49.426;8.396;2022-09-03T07:08:32;10.93;;;2.80;;
52686;SDS011;38584;49.426;8.396;2022-09-03T07:10:58;9.82;;;2.58;;
52686;SDS011;38584;49.426;8.396;2022-09-03T07:13:25;10.00;;;2.70;;
52686;SDS011;38584;49.426;8.396;2022-09-03T07:15:57;9.73;;;2.65;;
52686;SDS011;38584;49.426;8.396;2022-09-03T07:18:23;8.25;;;2.42;;
52686;SDS011;38584;49.426;8.396;2022-09-03T07:20:48;11.97;;;2.63;;
52686;SDS011;38584;49.426;8.396;2022-09-03T07:23:13;9.63;;;2.97;;
52686;SDS011;38584;49.426;8.396;2022-09-03T07:25:40;11.45;;;2.70;;
52686;SDS011;38584;49.426;8.396;2022-09-03T07:28:07;8.53;;;2.70;;
52686;SDS011;38584;49.426;8.396;2022-09-03T07:30:33;10.68;;;2.78;;
52686;SDS011;38584;49.426;8.396;2022-09-03T07:32:58;10.47;;;2.40;;
52686;SDS011;38584;49.426;8.396;2022-09-03T07:35:27;9.65;;;3.05;;
52686;SDS011;38584;49.426;8.396;2022-09-03T07:37:53;11.68;;;3.30;;
52686;SDS011;38584;49.426;8.396;2022-09-03T07:40:19;10.38;;;2.90;;
52686;SDS011;38584;49.426;8.396;2022-09-03T07:42:44;8.57;;;3.10;;
52686;SDS011;38584;49.426;8.396;2022-09-03T07:45:11;9.85;;;3.13;;
52686;SDS011;38584;49.426;8.396;2022-09-03T07:47:36;10.65;;;3.28;;
52686;SDS011;38584;49.426;8.396;2022-09-03T07:50:02;11.57;;;3.28;;
52686;SDS011;38584;49.426;8.396;2022-09-03T07:52:28;10.98;;;3.03;;
52686;SDS011;38584;49.426;8.396;2022-09-03T07:54:53;14.33;;;3.43;;
52686;SDS011;38584;49.426;8.396;2022-09-03T07:57:18;12.33;;;3.07;;
52686;SDS011;38584;49.426;8.396;2022-09-03T07:59:44;11.33;;;3.33;;
52686;SDS011;38584;49.426;8.396;2022-09-03T08:02:09;10.17;;;3.30;;
52686;SDS011;38584;49.426;8.396;2022-09-03T08:04:34;12.00;;;3.80;;
52686;SDS011;38584;49.426;8.396;2022-09-03T08:07:00;10.10;;;3.58;;
52686;SDS011;38584;49.426;8.396;2022-09-03T08:09:25;13.65;;;3.83;;
52686;SDS011;38584;49.426;8.396;2022-09-03T08:11:50;11.10;;;3.80;;
52686;SDS011;38584;49.426;8.396;2022-09-03T08:14:16;10.33;;;3.57;;
52686;SDS011;38584;49.426;8.396;2022-09-03T08:16:43;12.05;;;4.22;;
52686;SDS011;38584;49.426;8.396;2022-09-03T08:19:10;9.35;;;3.67;;
52686;SDS011;38584;49.426;8.396;2022-09-03T08:21:37;10.35;;;3.42;;
52686;SDS011;38584;49.426;8.396;2022-09-03T08:24:02;15.35;;;3.80;;
52686;SDS011;38584;49.426;8.396;2022-09-03T08:26:38;11.35;;;3.80;;
52686;SDS011;38584;49.426;8.396;2022-09-03T08:29:05;13.05;;;4.13;;
52686;SDS011;38584;49.426;8.396;2022-09-03T08:31:31;13.55;;;4.22;;
52686;SDS011;38584;49.426;8.396;2022-09-03T08:33:57;18.00;;;4.13;;
52686;SDS011;38584;49.426;8.396;2022-09-03T08:36:24;14.68;;;4.35;;
52686;SDS011;38584;49.426;8.396;2022-09-03T08:38:50;12.80;;;3.83;;
52686;SDS011;38584;49.426;8.396;2022-09-03T08:41:20;10.68;;;3.60;;
52686;SDS011;38584;49.426;8.396;2022-09-03T08:43:53;11.80;;;4.05;;
52686;SDS011;38584;49.426;8.396;2022-09-03T08:46:20;11.80;;;3.95;;
52686;SDS011;38584;49.426;8.396;2022-09-03T08:48:48;14.50;;;4.72;;
52686;SDS011;38584;49.426;8.396;2022-09-03T08:51:14;11.98;;;4.50;;
52686;SDS011;38584;49.426;8.396;2022-09-03T08:53:44;10.95;;;4.47;;
52686;SDS011;38584;49.426;8.396;2022-09-03T08:56:17;13.55;;;4.68;;
52686;SDS011;38584;49.426;8.396;2022-09-03T08:58:45;13.60;;;4.10;;
52686;SDS011;38584;49.426;8.396;2022-09-03T09:10:00;9.50;;;3.47;;
52686;SDS011;38584;49.426;8.396;2022-09-03T09:25:26;10.05;;;3.20;;
52686;SDS011;38584;49.426;8.396;2022-09-03T09:28:01;10.32;;;3.38;;
52686;SDS011;38584;49.426;8.396;2022-09-03T09:30:28;11.68;;;3.60;;
52686;SDS011;38584;49.426;8.396;2022-09-03T09:32:53;9.80;;;3.17;;
52686;SDS011;38584;49.426;8.396;2022-09-03T09:35:19;11.85;;;3.63;;
52686;SDS011;38584;49.426;8.396;2022-09-03T09:37:48;9.55;;;3.35;;
52686;SDS011;38584;49.426;8.396;2022-09-03T09:42:51;10.00;;;3.50;;
52686;SDS011;38584;49.426;8.396;2022-09-03T09:45:22;10.18;;;3.30;;
52686;SDS011;38584;49.426;8.396;2022-09-03T09:47:48;11.15;;;3.28;;
52686;SDS011;38584;49.426;8.396;2022-09-03T09:50:17;11.05;;;3.60;;
52686;SDS011;38584;49.426;8.396;2022-09-03T09:52:44;12.38;;;3.50;;
52686;SDS011;38584;49.426;8.396;2022-09-03T09:55:14;7.38;;;3.10;;
52686;SDS011;38584;49.426;8.396;2022-09-03T09:57:40;11.45;;;3.63;;
52686;SDS011;38584;49.426;8.396;2022-09-03T10:00:10;9.00;;;3.30;;
52686;SDS011;38584;49.426;8.396;2022-09-03T10:02:37;10.38;;;3.60;;
52686;SDS011;38584;49.426;8.396;2022-09-03T10:05:13;10.38;;;3.80;;
52686;SDS011;38584;49.426;8.396;2022-09-03T10:07:39;10.32;;;3.70;;
52686;SDS011;38584;49.426;8.396;2022-09-03T10:10:17;8.73;;;3.30;;
52686;SDS011;38584;49.426;8.396;2022-09-03T10:12:45;10.27;;;3.72;;
52686;SDS011;38584;49.426;8.396;2022-09-03T10:20:30;8.73;;;3.33;;
52686;SDS011;38584;49.426;8.396;2022-09-03T10:25:32;10.02;;;3.55;;
52686;SDS011;38584;49.426;8.396;2022-09-03T10:27:59;10.13;;;3.45;;
52686;SDS011;38584;49.426;8.396;2022-09-03T10:30:25;11.88;;;4.10;;
52686;SDS011;38584;49.426;8.396;2022-09-03T10:35:45;10.82;;;4.30;;
52686;SDS011;38584;49.426;8.396;2022-09-03T10:38:26;13.18;;;4.38;;
52686;SDS011;38584;49.426;8.396;2022-09-03T10:43:46;11.43;;;4.07;;
52686;SDS011;38584;49.426;8.396;2022-09-03T10:46:16;8.77;;;3.72;;
52686;SDS011;38584;49.426;8.396;2022-09-03T10:48:46;10.82;;;4.05;;
52686;SDS011;38584;49.426;8.396;2022-09-03T11:02:14;10.90;;;3.88;;
52686;SDS011;38584;49.426;8.396;2022-09-03T11:04:52;11.35;;;4.20;;
52686;SDS011;38584;49.426;8.396;2022-09-03T11:07:20;10.70;;;4.63;;
52686;SDS011;38584;49.426;8.396;2022-09-03T11:09:49;11.75;;;4.68;;
52686;SDS011;38584;49.426;8.396;2022-09-03T11:12:34;12.00;;;5.00;;
52686;SDS011;38584;49.426;8.396;2022-09-03T11:15:22;10.50;;;4.07;;
52686;SDS011;38584;49.426;8.396;2022-09-03T11:17:57;11.00;;;3.83;;
52686;SDS011;38584;49.426;8.396;2022-09-03T11:20:25;11.18;;;4.60;;
52686;SDS011;38584;49.426;8.396;2022-09-03T11:22:54;10.07;;;4.38;;
52686;SDS011;38584;49.426;8.396;2022-09-03T11:25:21;10.10;;;4.43;;
52686;SDS011;38584;49.426;8.396;2022-09-03T11:28:02;8.93;;;4.22;;
52686;SDS011;38584;49.426;8.396;2022-09-03T11:30:48;10.70;;;4.03;;
52686;SDS011;38584;49.426;8.396;2022-09-03T11:33:17;10.02;;;4.05;;
52686;SDS011;38584;49.426;8.396;2022-09-03T11:35:43;19.02;;;9.60;;
52686;SDS011;38584;49.426;8.396;2022-09-03T11:40:42;9.70;;;3.50;;
52686;SDS011;38584;49.426;8.396;2022-09-03T11:45:59;5.20;;;2.42;;
52686;SDS011;38584;49.426;8.396;2022-09-03T11:48:44;9.10;;;2.80;;
52686;SDS011;38584;49.426;8.396;2022-09-03T11:51:20;4.80;;;2.20;;
52686;SDS011;38584;49.426;8.396;2022-09-03T11:53:56;3.05;;;1.83;;
52686;SDS011;38584;49.426;8.396;2022-09-03T11:56:22;5.30;;;2.17;;
52686;SDS011;38584;49.426;8.396;2022-09-03T11:58:57;5.28;;;1.95;;
52686;SDS011;38584;49.426;8.396;2022-09-03T12:01:24;3.25;;;1.80;;
52686;SDS011;38584;49.426;8.396;2022-09-03T12:03:53;3.83;;;1.95;;
52686;SDS011;38584;49.426;8.396;2022-09-03T12:11:44;4.00;;;1.75;;
52686;SDS011;38584;49.426;8.396;2022-09-03T12:14:22;7.20;;;1.95;;
52686;SDS011;38584;49.426;8.396;2022-09-03T12:16:54;4.55;;;2.00;;
52686;SDS011;38584;49.426;8.396;2022-09-03T12:21:49;4.10;;;1.88;;
52686;SDS011;38584;49.426;8.396;2022-09-03T12:24:14;6.80;;;2.10;;
52686;SDS011;38584;49.426;8.396;2022-09-03T12:26:41;5.47;;;2.05;;
52686;SDS011;38584;49.426;8.396;2022-09-03T12:29:18;5.45;;;2.08;;
52686;SDS011;38584;49.426;8.396;2022-09-03T12:31:44;6.90;;;2.20;;
52686;SDS011;38584;49.426;8.396;2022-09-03T12:34:11;3.25;;;1.88;;
52686;SDS011;38584;49.426;8.396;2022-09-03T12:36:37;3.63;;;1.95;;
52686;SDS011;38584;49.426;8.396;2022-09-03T12:39:06;5.88;;;2.15;;
52686;SDS011;38584;49.426;8.396;2022-09-03T12:41:32;3.55;;;2.03;;
52686;SDS011;38584;49.426;8.396;2022-09-03T12:43:57;5.50;;;2.15;;
52686;SDS011;38584;49.426;8.396;2022-09-03T12:46:27;5.05;;;2.30;;
52686;SDS011;38584;49.426;8.396;2022-09-03T12:48:53;5.97;;;2.13;;
52686;SDS011;38584;49.426;8.396;2022-09-03T12:51:18;6.97;;;2.30;;
52686;SDS011;38584;49.426;8.396;2022-09-03T12:53:43;7.18;;;2.17;;
52686;SDS011;38584;49.426;8.396;2022-09-03T12:56:09;4.15;;;2.10;;
52686;SDS011;38584;49.426;8.396;2022-09-03T13:01:06;5.38;;;2.15;;
52686;SDS011;38584;49.426;8.396;2022-09-03T13:03:52;4.97;;;2.40;;
52686;SDS011;38584;49.426;8.396;2022-09-03T13:06:21;6.15;;;2.10;;
52686;SDS011;38584;49.426;8.396;2022-09-03T13:08:48;6.35;;;2.30;;
52686;SDS011;38584;49.426;8.396;2022-09-03T13:11:15;5.50;;;2.30;;
52686;SDS011;38584;49.426;8.396;2022-09-03T13:13:47;5.80;;;2.35;;
52686;SDS011;38584;49.426;8.396;2022-09-03T13:18:42;6.10;;;2.60;;
52686;SDS011;38584;49.426;8.396;2022-09-03T13:31:49;5.50;;;2.85;;
52686;SDS011;38584;49.426;8.396;2022-09-03T13:34:19;6.65;;;2.47;;
52686;SDS011;38584;49.426;8.396;2022-09-03T13:36:50;8.65;;;2.90;;
52686;SDS011;38584;49.426;8.396;2022-09-03T13:42:03;6.20;;;2.90;;
52686;SDS011;38584;49.426;8.396;2022-09-03T13:44:35;7.57;;;3.10;;
52686;SDS011;38584;49.426;8.396;2022-09-03T13:49:38;9.30;;;3.10;;
52686;SDS011;38584;49.426;8.396;2022-09-03T13:52:29;9.73;;;3.00;;
52686;SDS011;38584;49.426;8.396;2022-09-03T13:54:56;11.20;;;3.00;;
52686;SDS011;38584;49.426;8.396;2022-09-03T13:57:37;5.50;;;2.50;;
52686;SDS011;38584;49.426;8.396;2022-09-03T14:00:05;5.20;;;2.50;;
52686;SDS011;38584;49.426;8.396;2022-09-03T14:02:39;7.55;;;2.70;;
52686;SDS011;38584;49.426;8.396;2022-09-03T14:13:47;7.22;;;2.35;;
52686;SDS011;38584;49.426;8.396;2022-09-03T14:16:37;4.10;;;2.05;;
52686;SDS011;38584;49.426;8.396;2022-09-03T14:19:11;4.88;;;2.28;;
52686;SDS011;38584;49.426;8.396;2022-09-03T14:21:44;4.95;;;2.30;;
52686;SDS011;38584;49.426;8.396;2022-09-03T14:24:14;5.47;;;2.33;;
52686;SDS011;38584;49.426;8.396;2022-09-03T14:26:50;6.00;;;2.35;;
52686;SDS011;38584;49.426;8.396;2022-09-03T14:29:16;8.77;;;2.42;;
52686;SDS011;38584;49.426;8.396;2022-09-03T14:34:12;7.18;;;2.38;;
52686;SDS011;38584;49.426;8.396;2022-09-03T14:36:54;5.70;;;2.30;;
52686;SDS011;38584;49.426;8.396;2022-09-03T14:39:32;6.60;;;2.23;;
52686;SDS011;38584;49.426;8.396;2022-09-03T14:44:29;6.80;;;2.58;;
52686;SDS011;38584;49.426;8.396;2022-09-03T14:47:10;6.90;;;2.88;;
52686;SDS011;38584;49.426;8.396;2022-09-03T14:52:19;7.40;;;3.13;;
52686;SDS011;38584;49.426;8.396;2022-09-03T14:54:49;6.75;;;2.97;;
52686;SDS011;38584;49.426;8.396;2022-09-03T14:57:27;8.55;;;3.17;;
52686;SDS011;38584;49.426;8.396;2022-09-03T15:05:39;10.68;;;3.35;;
52686;SDS011;38584;49.426;8.396;2022-09-03T15:08:07;8.27;;;3.33;;
52686;SDS011;38584;49.426;8.396;2022-09-03T15:13:13;14.98;;;4.82;;
52686;SDS011;38584;49.426;8.396;2022-09-03T15:18:15;9.70;;;3.50;;
52686;SDS011;38584;49.426;8.396;2022-09-03T15:20:52;18.58;;;4.25;;
52686;SDS011;38584;49.426;8.396;2022-09-03T15:23:19;8.60;;;3.20;;
52686;SDS011;38584;49.426;8.396;2022-09-03T15:25:53;8.63;;;3.15;;
52686;SDS011;38584;49.426;8.396;2022-09-03T15:31:21;7.95;;;3.15;;
52686;SDS011;38584;49.426;8.396;2022-09-03T15:33:55;10.10;;;2.90;;
52686;SDS011;38584;49.426;8.396;2022-09-03T15:41:24;6.95;;;2.80;;
52686;SDS011;38584;49.426;8.396;2022-09-03T15:43:56;8.20;;;3.00;;
52686;SDS011;38584;49.426;8.396;2022-09-03T15:53:53;6.40;;;2.70;;
52686;SDS011;38584;49.426;8.396;2022-09-03T15:56:25;9.48;;;3.40;;
52686;SDS011;38584;49.426;8.396;2022-09-03T15:58:58;7.45;;;3.05;;
52686;SDS011;38584;49.426;8.396;2022-09-03T16:01:26;12.60;;;5.13;;
52686;SDS011;38584;49.426;8.396;2022-09-03T16:06:56;7.88;;;3.47;;
52686;SDS011;38584;49.426;8.396;2022-09-03T16:11:55;10.20;;;3.70;;
52686;SDS011;38584;49.426;8.396;2022-09-03T16:14:29;11.52;;;3.95;;
52686;SDS011;38584;49.426;8.396;2022-09-03T16:17:12;10.85;;;4.43;;
52686;SDS011;38584;49.426;8.396;2022-09-03T16:22:13;10.05;;;4.50;;
52686;SDS011;38584;49.426;8.396;2022-09-03T16:24:51;10.00;;;4.55;;
52686;SDS011;38584;49.426;8.396;2022-09-03T16:29:56;11.48;;;4.22;;
52686;SDS011;38584;49.426;8.396;2022-09-03T16:32:28;10.13;;;4.65;;
52686;SDS011;38584;49.426;8.396;2022-09-03T16:34:58;9.10;;;4.10;;
52686;SDS011;38584;49.426;8.396;2022-09-03T16:40:16;11.48;;;4.63;;
52686;SDS011;38584;49.426;8.396;2022-09-03T16:55:55;9.93;;;4.65;;
52686;SDS011;38584;49.426;8.396;2022-09-03T16:58:33;13.23;;;5.15;;
52686;SDS011;38584;49.426;8.396;2022-09-03T17:06:08;11.73;;;5.35;;
52686;SDS011;38584;49.426;8.396;2022-09-03T17:14:18;11.82;;;5.30;;
52686;SDS011;38584;49.426;8.396;2022-09-03T17:24:39;12.70;;;5.53;;
52686;SDS011;38584;49.426;8.396;2022-09-03T17:32:21;11.65;;;5.40;;
52686;SDS011;38584;49.426;8.396;2022-09-03T17:34:59;11.57;;;5.10;;
52686;SDS011;38584;49.426;8.396;2022-09-03T17:37:38;9.90;;;4.55;;
52686;SDS011;38584;49.426;8.396;2022-09-03T17:40:24;10.13;;;5.15;;
52686;SDS011;38584;49.426;8.396;2022-09-03T17:50:20;12.18;;;5.32;;
52686;SDS011;38584;49.426;8.396;2022-09-03T17:52:50;12.73;;;5.53;;
52686;SDS011;38584;49.426;8.396;2022-09-03T18:03:03;15.32;;;7.38;;
52686;SDS011;38584;49.426;8.396;2022-09-03T18:05:32;13.38;;;7.53;;
52686;SDS011;38584;49.426;8.396;2022-09-03T18:13:05;14.45;;;7.43;;
52686;SDS011;38584;49.426;8.396;2022-09-03T18:15:49;14.80;;;7.25;;
52686;SDS011;38584;49.426;8.396;2022-09-03T18:18:35;13.32;;;8.23;;
52686;SDS011;38584;49.426;8.396;2022-09-03T18:21:04;15.43;;;7.40;;
52686;SDS011;38584;49.426;8.396;2022-09-03T18:23:58;15.50;;;7.68;;
52686;SDS011;38584;49.426;8.396;2022-09-03T18:26:45;14.05;;;7.97;;
52686;SDS011;38584;49.426;8.396;2022-09-03T18:29:35;12.95;;;7.05;;
52686;SDS011;38584;49.426;8.396;2022-09-03T18:32:20;12.82;;;7.60;;
52686;SDS011;38584;49.426;8.396;2022-09-03T18:35:04;16.15;;;7.28;;
52686;SDS011;38584;49.426;8.396;2022-09-03T18:37:48;14.63;;;7.32;;
52686;SDS011;38584;49.426;8.396;2022-09-03T18:41:15;14.80;;;7.20;;
52686;SDS011;38584;49.426;8.396;2022-09-03T18:43:46;14.88;;;7.40;;
52686;SDS011;38584;49.426;8.396;2022-09-03T18:46:46;18.50;;;7.78;;
52686;SDS011;38584;49.426;8.396;2022-09-03T18:49:37;13.43;;;6.30;;
52686;SDS011;38584;49.426;8.396;2022-09-03T18:55:17;14.50;;;7.70;;
52686;SDS011;38584;49.426;8.396;2022-09-03T19:03:55;15.57;;;7.55;;
52686;SDS011;38584;49.426;8.396;2022-09-03T19:07:01;16.15;;;7.28;;
52686;SDS011;38584;49.426;8.396;2022-09-03T19:10:07;15.05;;;7.68;;
52686;SDS011;38584;49.426;8.396;2022-09-03T19:21:53;14.27;;;7.40;;
52686;SDS011;38584;49.426;8.396;2022-09-03T19:24:38;13.93;;;7.63;;
52686;SDS011;38584;49.426;8.396;2022-09-03T19:27:30;15.38;;;7.57;;
52686;SDS011;38584;49.426;8.396;2022-09-03T19:30:19;12.75;;;6.90;;
52686;SDS011;38584;49.426;8.396;2022-09-03T19:39:05;16.10;;;7.43;;
52686;SDS011;38584;49.426;8.396;2022-09-03T19:42:06;13.65;;;8.07;;
52686;SDS011;38584;49.426;8.396;2022-09-03T19:44:57;14.05;;;8.10;;